Tiempo atmosférico en la estación meteorológica de Machichaco, Bizkaia (93 m.)



Fecha
DESCASC
Temp. máxima en grados centígrados (hora)
DESCASC
Temp. mínima en grados centígrados (hora)
DESCASC
Temp. media en grados centígrados
DESCASC
Racha de viento máxima en m/sg (hora)
DESCASC
Velocidad máxima media en intervalos de 10 minutos(hora)
DESCASC
Precipitaciones diarias en mm
DESCASC
Precipitaciones de 00:00 a 06:00 en mm
DESCASC
Precipitaciones de 06:00 a 12:00 en mm
DESCASC
Precipitaciones de 12:00 a 18:00 en mm
DESCASC
Precipitaciones de 18:00 a 24:00 en mm
DESCASC
17-02-2019 21.7 (16:00) 13.3 (22:30) 17.5 16.94 (08:10) 10.28 (05:10) 0 0 0 0 0
16-02-2019 20.8 (16:10) 10.5 (05:40) 15.6 15.56 (22:30) 8.06 (22:50) 0 0 0 0 0
15-02-2019 21.9 (15:30) 12 (23:50) 16.9 18.61 (05:10) 12.5 (05:40) 0 0 0 0 0
14-02-2019 20.2 (16:40) 10.3 (00:00) 15.3 9.17 (18:30) 5 (19:00) 0 0 0 0 0
13-02-2019 12.5 (20:30) 7.3 (00:00) 9.9 8.06 (07:50) 5.83 (17:50) 0 0 0 0 0
12-02-2019 11.1 (14:50) 7.2 (00:00) 9.2 10 (15:50) 8.06 (16:00) 0 0 0 0 0
11-02-2019 10.5 (16:10) 7.8 (00:00) 9.2 21.11 (02:20) 16.67 (02:20) 2.4 0.2 1 1.2 0
10-02-2019 14.9 (00:00) 9.4 (00:00) 12.1 24.44 (10:10) 19.17 (10:10) 3.4 0 1.8 1.6 0
09-02-2019 17.1 (14:30) 11.2 (00:00) 14.2 13.61 (22:00) 7.5 (16:20) 0 0 0 0 0
08-02-2019 14.8 (19:40) 8.5 (00:00) 11.7 11.39 (21:20) 8.33 (21:00) 0 0 0 0 0
07-02-2019 12.1 (06:00) 8 (00:00) 10.1 17.22 (10:30) 12.5 (10:00) 1.4 0 1.4 0 0
06-02-2019 13.7 (13:00) 9.4 (00:00) 11.5 13.89 (22:30) 9.72 (22:50) 0 0 0 0 0
05-02-2019 13.9 (14:40) 10.2 (00:00) 12 16.39 (05:50) 11.11 (05:50) 0.2 0.2 0 0 0
04-02-2019 13.3 (14:30) 4.3 (00:00) 8.8 13.33 (19:10) 6.94 (23:30) 1.2 0 0 0.2 1
03-02-2019 8.9 (16:50) 5.7 (00:00) 7.3 16.67 (07:10) 12.5 (07:10) 2.2 1 0.6 0.6 0
02-02-2019 9.5 (16:50) 6.5 (00:00) 8 31.67 (07:10) 25 (08:40) 7.2 5.6 0.8 0.4 0.4
01-02-2019 12.9 (13:10) 6.9 (00:00) 9.9 25 (21:30) 19.72 (21:30) 7.4 1.8 0 2.8 2.8
31-01-2019 14.5 (10:50) 8.9 (00:00) 11.7 20.83 (08:10) 16.11 (18:10) 30.6 6.4 8.2 7.6 8.4
30-01-2019 10.8 (15:40) 5.7 (00:00) 8.3 28.06 (06:00) 22.78 (01:30) 21.6 4 12.8 0 4.8
29-01-2019 11.4 (15:20) 6.5 (00:00) 8.9 40 (18:40) 30.83 (16:30) 16.4 3 2 7.2 4.2
28-01-2019 11.6 (09:50) 7.7 (00:00) 9.7 36.11 (07:20) 28.61 (07:10) 15.8 8.2 2.8 1.8 3
27-01-2019 11 (02:20) 7.4 (00:00) 9.2 37.22 (05:30) 27.5 (05:30) 13.6 4 4.6 1.8 3.2
26-01-2019 14 (13:20) 9.5 (00:00) 11.8 13.06 (20:40) 8.06 (20:40) 0.2 0 0.2 0 0
25-01-2019 11.4 (06:10) 9.2 (00:00) 10.3 20 (07:30) 16.39 (15:00) 2.8 1.4 0.2 0.6 0.6
24-01-2019 9.2 (23:59) 6.7 (00:00) 7.9 16.39 (01:10) 11.94 (01:00) 5.8 1 2.4 2.2 0.2
23-01-2019 12 (07:10) 8.2 (00:00) 10.1 37.22 (06:40) 31.39 (06:40) 16.6 8.6 2.6 3.2 2.2
22-01-2019 10 (22:30) 7.1 (00:00) 8.5 28.61 (10:40) 21.67 (17:30) 20.6 0 9.2 3 8.4
21-01-2019 9.5 (00:30) 7.6 (00:00) 8.5 12.22 (11:50) 8.89 (02:30) 0.4 0.4 0 0 0
20-01-2019 10.6 (11:40) 8.6 (00:00) 9.6 15.56 (17:40) 12.22 (05:00) 8.6 0.6 1 6 1
19-01-2019 11.5 (13:40) 7.7 (00:00) 9.6 15.56 (01:00) 9.17 (17:30) 6 6 0 0 0

Gráficas

Temp. máximas Temp. mínimas Temp. medias Precipitaciones Rachas de viento máximas Velocidades máximas media en intervalos de 10 minutos

Datos horarios

Fecha y hora oficial Temperatura (ºC) Velocidad del viento (km/h) Dirección del viento Racha (km/h) Dirección de racha Precipitación (mm) Presión (hPa) Tendencia (hPa) Humedad (%)
2019-02-17 23:00:00 14 5 Sudeste 19 Sudeste 0 -- -- 30
2019-02-17 22:00:00 13.7 9 Sudeste 21 Sur 0 -- -- 33
2019-02-17 21:00:00 13.6 9 Este 15 Este 0 -- -- 31
2019-02-17 20:00:00 13.9 7 Este 12 Este 0 -- -- 31
2019-02-17 19:00:00 14.3 2 Sur 19 Este 0 -- -- 27
2019-02-17 18:00:00 16.5 10 Sudeste 16 Sudeste 0 -- -- 22
2019-02-17 17:00:00 19.6 5 Sudeste 13 Sudoeste 0 -- -- 26
2019-02-17 16:00:00 21.7 5 Sudoeste 23 Sur 0 -- -- 17
2019-02-17 15:00:00 21.4 5 Oeste 14 Oeste 0 -- -- 19
2019-02-17 14:00:00 20.1 4 Norte 24 Sur 0 -- -- 21
2019-02-17 13:00:00 19.6 5 Nordeste 31 Sudeste 0 -- -- 22
2019-02-17 12:00:00 18.7 12 Este 26 Este 0 -- -- 20
2019-02-17 11:00:00 17.6 9 Este 28 Este 0 -- -- 23
2019-02-17 10:00:00 15.8 19 Este 33 Este 0 -- -- 25
2019-02-17 09:00:00 15.9 14 Sur 61 Sur 0 -- -- 24
2019-02-17 08:00:00 16.1 32 Sur 52 Sur 0 -- -- 21
2019-02-17 07:00:00 16.4 27 Sur 48 Sur 0 -- -- 21
2019-02-17 06:00:00 16.2 24 Sur 58 Sur 0 -- -- 21
2019-02-17 05:00:00 16.5 35 Sur 60 Sur 0 -- -- 22
2019-02-17 04:00:00 17.2 36 Sur 57 Sur 0 -- -- 22
2019-02-17 03:00:00 17.2 32 Sur 59 Sur 0 -- -- 22
2019-02-17 02:00:00 16.9 22 Sur 46 Sudoeste 0 -- -- 23
2019-02-17 01:00:00 17.2 26 Sur 51 Sur 0 -- -- 24
2019-02-17 00:00:00 17.3 27 Sur 51 Sur 0 -- -- 25
2019-02-16 23:00:00 17.2 26 Sur 56 Sur 0 -- -- 27
2019-02-16 22:00:00 17.2 24 Sur 52 Sudeste 0 -- -- 27
2019-02-16 21:00:00 16.7 21 Sur 41 Sur 0 -- -- 30
2019-02-16 20:00:00 15.8 16 Este 35 Este 0 -- -- 37
2019-02-16 19:00:00 16.4 10 Este 28 Sur 0 -- -- 38
2019-02-16 18:00:00 17.6 10 Sur 30 Sudeste 0 -- -- 36
2019-02-16 17:00:00 19.7 6 Sudoeste 27 Sudeste 0 -- -- 33
2019-02-16 16:00:00 20.7 5 Sur 20 Sur 0 -- -- 36
2019-02-16 15:00:00 19 4 Este 11 Este 0 -- -- 42
2019-02-16 14:00:00 17.5 8 Este 17 Este 0 -- -- 46
2019-02-16 13:00:00 16.7 9 Este 17 Este 0 -- -- 45
2019-02-16 12:00:00 16 8 Este 21 Este 0 -- -- 47
2019-02-16 11:00:00 15.1 12 Sudeste 21 Sudeste 0 -- -- 47
2019-02-16 10:00:00 14.1 9 Sudeste 22 Sudeste 0 -- -- 51
2019-02-16 09:00:00 12.4 6 Sudeste 14 Sur 0 -- -- 54
2019-02-16 08:00:00 11.2 3 Sur 15 Sur 0 -- -- 53
2019-02-16 07:00:00 11.4 7 Sudeste 15 Sur 0 -- -- 51
2019-02-16 06:00:00 11 5 Sudoeste 12 Sudeste 0 -- -- 52
2019-02-16 05:00:00 12 3 Sudoeste 8 Sudoeste 0 -- -- 48
2019-02-16 04:00:00 11.9 0 Calma 9 Oeste 0 -- -- 50
2019-02-16 03:00:00 12.5 5 Sudoeste 8 Sudoeste 0 -- -- 46
2019-02-16 02:00:00 12 3 Sur 12 Sudeste 0 -- -- 49
2019-02-16 01:00:00 11.5 4 Sudeste 6 Sudeste 0 -- -- 53
2019-02-16 00:00:00 12.2 5 Este 12 Nordeste 0 -- -- 58
2019-02-15 23:00:00 12.9 4 Este 10 Nordeste 0 -- -- 54
2019-02-15 22:00:00 14.8 0 Calma 9 Oeste 0 -- -- 38
2019-02-15 21:00:00 15 0 Calma 10 Sudeste 0 -- -- 41
2019-02-15 20:00:00 15.6 4 Sudeste 10 Sudeste 0 -- -- 42
2019-02-15 19:00:00 16.4 9 Sudeste 12 Sudeste 0 -- -- 41
2019-02-15 18:00:00 16.6 8 Sudeste 14 Sudeste 0 -- -- 40
2019-02-15 17:00:00 20.7 2 Este 10 Nordeste 0 -- -- 32
2019-02-15 16:00:00 20.9 4 Norte 16 Oeste 0 -- -- 31
2019-02-15 15:00:00 21.6 6 Sur 25 Sur 0 -- -- 30
2019-02-15 14:00:00 20.2 17 Sudoeste 37 Sudoeste 0 -- -- 32
2019-02-15 13:00:00 19.2 24 Sur 44 Sudoeste 0 -- -- 31
2019-02-15 12:00:00 18.6 29 Sur 47 Sur 0 -- -- 30
2019-02-15 11:00:00 18.3 33 Sur 55 Sur 0 -- -- 28
2019-02-15 10:00:00 17.9 34 Sur 57 Sur 0 -- -- 28
2019-02-15 09:00:00 16.9 37 Sur 61 Sur 0 -- -- 29
2019-02-15 08:00:00 16.1 41 Sur 62 Sur 0 -- -- 31
2019-02-15 07:00:00 16.2 42 Sur 65 Sur 0 -- -- 31
2019-02-15 06:00:00 17.1 43 Sur 67 Sur 0 -- -- 29
2019-02-15 05:00:00 16.7 41 Sur 60 Sur 0 -- -- 29
2019-02-15 04:00:00 16.2 32 Sur 51 Sur 0 -- -- 32
2019-02-15 03:00:00 15.6 11 Sudeste 41 Sudoeste 0 -- -- 34
2019-02-15 02:00:00 15.4 4 Norte 16 Noroeste 0 -- -- 36
2019-02-15 01:00:00 15 4 Este 18 Noroeste 0 -- -- 32
2019-02-15 00:00:00 15.4 4 Nordeste 17 Sur 0 -- -- 32
2019-02-14 23:00:00 15 4 Este 12 Sur 0 -- -- 31
2019-02-14 22:00:00 16 5 Noroeste 18 Sur 0 -- -- 29
2019-02-14 21:00:00 16.1 5 Sudeste 30 Sur 0 -- -- 30
2019-02-14 20:00:00 16.2 13 Sur 32 Sur 0 -- -- 31
2019-02-14 19:00:00 16.9 18 Sur 33 Sudeste 0 -- -- 30
2019-02-14 18:00:00 17.2 12 Sudeste 28 Sudeste 0 -- -- 31
2019-02-14 17:00:00 20.1 4 Sudeste 13 Sudeste 0 -- -- 30
2019-02-14 16:00:00 19.5 3 Oeste 12 Oeste 0 -- -- 33
2019-02-14 15:00:00 19 6 Sudoeste 10 Sudoeste 0 -- -- 39
2019-02-14 14:00:00 17.7 10 Sudoeste 13 Sudoeste 0 -- -- 39
2019-02-14 13:00:00 17.4 4 Noroeste 12 Noroeste 0 -- -- 43
2019-02-14 12:00:00 16.8 6 Noroeste 13 Sudoeste 0 -- -- 40
2019-02-14 11:00:00 17.1 4 Oeste 15 Sudeste 0 -- -- 44
2019-02-14 10:00:00 15.9 5 Sur 14 Sur 0 -- -- 44
2019-02-14 09:00:00 13.4 3 Sudeste 19 Sudeste 0 -- -- 50
2019-02-14 08:00:00 11.6 4 Este 13 Sur 0 -- -- 58
2019-02-14 07:00:00 11.5 8 Sur 15 Sur 0 -- -- 56
2019-02-14 06:00:00 11.3 5 Sudeste 17 Sudeste 0 -- -- 56
2019-02-14 05:00:00 11.8 10 Sur 19 Sur 0 -- -- 54
2019-02-14 04:00:00 11.7 11 Sur 18 Sur 0 -- -- 55
2019-02-14 03:00:00 11.3 7 Sur 13 Sur 0 -- -- 59
2019-02-14 02:00:00 10.3 6 Sudeste 11 Sudeste 0 -- -- 63
2019-02-14 01:00:00 10.6 6 Sudeste 10 Sur 0 -- -- 62
2019-02-14 00:00:00 10.6 2 Noroeste 5 Noroeste 0 -- -- 65
2019-02-13 23:00:00 10.3 3 Oeste 6 Sudoeste 0 -- -- 73
2019-02-13 22:00:00 10.5 5 Sudoeste 12 Sudeste 0 -- -- 70
2019-02-13 21:00:00 11.6 6 Sudeste 24 Sudeste 0 -- -- 56
2019-02-13 20:00:00 11.9 15 Sudeste 26 Sudeste 0 -- -- 50
2019-02-13 19:00:00 11 17 Sudeste 27 Sudeste 0 -- -- 64
2019-02-13 18:00:00 10 19 Sudeste 27 Sudeste 0 -- -- 87
2019-02-13 17:00:00 11 18 Sudeste 26 Este 0 -- -- 82
2019-02-13 16:00:00 11.6 19 Este 26 Este 0 -- -- 76
2019-02-13 15:00:00 12 18 Este 25 Este 0 -- -- 76
2019-02-13 14:00:00 11.7 18 Sudeste 25 Este 0 -- -- 73
2019-02-13 13:00:00 11.6 15 Este 22 Sudeste 0 -- -- 73
2019-02-13 12:00:00 10.9 15 Este 21 Este 0 -- -- 75
2019-02-13 11:00:00 10.8 14 Este 22 Este 0 -- -- 74
2019-02-13 10:00:00 9.7 15 Sudeste 25 Este 0 -- -- 77
2019-02-13 09:00:00 8.5 17 Este 26 Sudeste 0 -- -- 83
2019-02-13 08:00:00 7.4 18 Sudeste 29 Sudeste 0 -- -- 84
2019-02-13 07:00:00 7.7 17 Sudeste 24 Sudeste 0 -- -- 82
2019-02-13 06:00:00 7.4 15 Sudeste 24 Sudeste 0 -- -- 86
2019-02-13 05:00:00 8.1 14 Sudeste 25 Este 0 -- -- 84
2019-02-13 04:00:00 8.3 16 Este 25 Sudeste 0 -- -- 84
2019-02-13 03:00:00 8.5 14 Este 22 Sudeste 0 -- -- 81
2019-02-13 02:00:00 8.7 13 Sudeste 23 Sudeste 0 -- -- 78
2019-02-13 01:00:00 8.9 11 Sudeste 29 Este 0 -- -- 80
2019-02-13 00:00:00 9.1 15 Este 27 Sudeste 0 -- -- 81
2019-02-12 23:00:00 9.6 18 Sudeste 32 Este 0 -- -- 80
2019-02-12 22:00:00 9.6 21 Este 33 Sudeste 0 -- -- 86
2019-02-12 21:00:00 9.4 18 Este 28 Este 0 -- -- 84
2019-02-12 20:00:00 9.2 16 Sudeste 26 Este 0 -- -- 80
2019-02-12 19:00:00 9.5 15 Este 34 Este 0 -- -- 77
2019-02-12 18:00:00 9.7 23 Este 35 Este 0 -- -- 76
2019-02-12 17:00:00 10.3 25 Este 35 Este 0 -- -- 73
2019-02-12 16:00:00 10.4 29 Este 36 Este 0 -- -- 68
2019-02-12 15:00:00 10.9 22 Este 32 Este 0 -- -- 64
2019-02-12 14:00:00 10.8 24 Este 33 Este 0 -- -- 67
2019-02-12 13:00:00 10.6 28 Este 34 Este 0 -- -- 71
2019-02-12 12:00:00 10.7 19 Este 28 Este 0 -- -- 78
2019-02-12 11:00:00 10.8 16 Este 25 Este 0 -- -- 75
2019-02-12 10:00:00 10.2 15 Este 23 Sudeste 0 -- -- 80
2019-02-12 09:00:00 8.8 12 Sudeste 21 Sudeste 0 -- -- 87
2019-02-12 08:00:00 7.6 9 Sudeste 15 Sudeste 0 -- -- 89
2019-02-12 07:00:00 7.9 6 Sudeste 12 Sudeste 0 -- -- 87
2019-02-12 06:00:00 8.3 4 Sudoeste 7 Oeste 0 -- -- 89
2019-02-12 05:00:00 8.1 6 Sudoeste 8 Sudoeste 0 -- -- 91
2019-02-12 04:00:00 8 3 Sudoeste 4 Sudoeste 0 -- -- 90
2019-02-12 03:00:00 7.7 0 Calma 4 Sudoeste 0 -- -- 91
2019-02-12 02:00:00 7.7 0 Calma 6 Sudeste 0 -- -- 92
2019-02-12 01:00:00 7.4 5 Sudoeste 8 Sudoeste 0 -- -- 90
2019-02-12 00:00:00 7.8 6 Oeste 14 Sudoeste 0 -- -- 89
2019-02-11 23:00:00 7.8 6 Oeste 13 Oeste 0 -- -- 90
2019-02-11 22:00:00 8.5 9 Sudoeste 17 Sudoeste 0 -- -- 89
2019-02-11 21:00:00 8.9 13 Sudoeste 21 Oeste 0 -- -- 88
2019-02-11 20:00:00 9 14 Oeste 23 Sudoeste 0 -- -- 87
2019-02-11 19:00:00 9.1 10 Oeste 13 Oeste 0 -- -- 82
2019-02-11 18:00:00 10.1 9 Oeste 28 Noroeste 0 -- -- 79
2019-02-11 17:00:00 9.8 24 Oeste 32 Oeste 0 -- -- 83
2019-02-11 16:00:00 10.2 17 Noroeste 41 Oeste 0 -- -- 73
2019-02-11 15:00:00 9.3 20 Oeste 40 Oeste 0.4 -- -- 87
2019-02-11 14:00:00 9.8 22 Oeste 45 Oeste 0 -- -- 83
2019-02-11 13:00:00 9.2 18 Oeste 51 Oeste 0.8 -- -- 89
2019-02-11 12:00:00 9.6 25 Oeste 41 Oeste 0 -- -- 86
2019-02-11 11:00:00 9.4 23 Oeste 42 Oeste 0 -- -- 84
2019-02-11 10:00:00 9 26 Oeste 48 Oeste 0.8 -- -- 87
2019-02-11 09:00:00 9.5 36 Oeste 47 Oeste 0 -- -- 84
2019-02-11 08:00:00 8.6 25 Oeste 41 Oeste 0.2 -- -- 90
2019-02-11 07:00:00 8.9 18 Oeste 59 Oeste 0 -- -- 86
2019-02-11 06:00:00 10.1 50 Oeste 65 Oeste 0 -- -- 81
2019-02-11 05:00:00 9 23 Oeste 69 Oeste 0 -- -- 85
2019-02-11 04:00:00 10 45 Oeste 59 Oeste 0 -- -- 75
2019-02-11 03:00:00 9.1 32 Oeste 76 Oeste 0.2 -- -- 81
2019-02-11 02:00:00 10.2 45 Oeste 63 Oeste 0 -- -- 74
2019-02-11 01:00:00 9.4 28 Oeste 59 Oeste 0 -- -- 84
2019-02-11 00:00:00 9.7 36 Oeste 67 Oeste 0 -- -- 83
2019-02-10 23:00:00 10.7 53 Oeste 64 Oeste 0 -- -- 69
2019-02-10 22:00:00 10.6 50 Oeste 66 Oeste 0 -- -- 69
2019-02-10 21:00:00 10.6 46 Oeste 65 Oeste 0 -- -- 69
2019-02-10 20:00:00 10.9 51 Oeste 64 Oeste 0 -- -- 71
2019-02-10 19:00:00 10.8 50 Oeste 64 Oeste 0 -- -- 70
2019-02-10 18:00:00 10.8 54 Oeste 69 Oeste 0 -- -- 68
2019-02-10 17:00:00 11 56 Oeste 67 Oeste 0.2 -- -- 73
2019-02-10 16:00:00 10.3 57 Oeste 75 Oeste 0 -- -- 82
2019-02-10 15:00:00 10.3 52 Oeste 82 Oeste 0.2 -- -- 82
2019-02-10 14:00:00 10.1 53 Oeste 69 Oeste 0.2 -- -- 91
2019-02-10 13:00:00 9.8 52 Oeste 81 Oeste 1 -- -- 95
2019-02-10 12:00:00 10 57 Oeste 84 Oeste 0.2 -- -- 92
2019-02-10 11:00:00 9.8 29 Oeste 88 Oeste 1.4 -- -- 94
2019-02-10 10:00:00 10.9 68 Noroeste 84 Noroeste 0.2 -- -- 90
2019-02-10 09:00:00 14.8 32 Sudoeste 76 Sudoeste 0 -- -- 57
2019-02-10 08:00:00 14.3 36 Sudoeste 67 Sudoeste 0 -- -- 58
2019-02-10 07:00:00 13.5 36 Sudoeste 69 Sur 0 -- -- 62
2019-02-10 06:00:00 13.7 35 Sur 61 Sur 0 -- -- 59
2019-02-10 05:00:00 14.1 31 Sudoeste 67 Sudoeste 0 -- -- 53
2019-02-10 04:00:00 14.2 39 Sudoeste 68 Sudoeste 0 -- -- 51
2019-02-10 03:00:00 14.3 37 Sudoeste 61 Sudoeste 0 -- -- 49
2019-02-10 02:00:00 14.6 34 Sudoeste 58 Sur 0 -- -- 48
2019-02-10 01:00:00 14.6 28 Sudoeste 58 Sur 0 -- -- 48
2019-02-10 00:00:00 14.9 19 Sudoeste 49 Sudoeste 0 -- -- 46
2019-02-09 23:00:00 15.3 19 Sudoeste 49 Sur 0 -- -- 46
2019-02-09 22:00:00 15.6 24 Sudoeste 49 Sudoeste 0 -- -- 46
2019-02-09 21:00:00 15.4 18 Sudoeste 46 Sudoeste 0 -- -- 47
2019-02-09 20:00:00 15.2 18 Sur 44 Sudoeste 0 -- -- 48
2019-02-09 19:00:00 15.1 23 Sudoeste 39 Sur 0 -- -- 48
2019-02-09 18:00:00 15 16 Sudoeste 41 Sudoeste 0 -- -- 50
2019-02-09 17:00:00 15.8 20 Sudoeste 44 Sudoeste 0 -- -- 49
2019-02-09 16:00:00 15.7 17 Sudoeste 36 Sur 0 -- -- 51
2019-02-09 15:00:00 16 19 Sudoeste 38 Sudoeste 0 -- -- 50
2019-02-09 14:00:00 16.5 17 Sudoeste 35 Sur 0 -- -- 49
2019-02-09 13:00:00 16.4 11 Sur 33 Sur 0 -- -- 51
2019-02-09 12:00:00 14.4 13 Nordeste 34 Sur 0 -- -- 61
2019-02-09 11:00:00 13.4 5 Norte 18 Este 0 -- -- 59
2019-02-09 10:00:00 12.4 4 Este 12 Sur 0 -- -- 62
2019-02-09 09:00:00 12.5 2 Este 25 Sur 0 -- -- 60
2019-02-09 08:00:00 12.5 8 Sur 23 Sur 0 -- -- 57
2019-02-09 07:00:00 11.2 2 Sudeste 6 Sudeste 0 -- -- 63
2019-02-09 06:00:00 12.5 0 Calma 21 Sur 0 -- -- 56
2019-02-09 05:00:00 13.5 9 Sur 24 Sudoeste 0 -- -- 51
2019-02-09 04:00:00 13.6 9 Sur 25 Sudoeste 0 -- -- 52
2019-02-09 03:00:00 14.1 19 Sur 35 Sudoeste 0 -- -- 51
2019-02-09 02:00:00 14.2 20 Sur 35 Sudoeste 0 -- -- 50
2019-02-09 01:00:00 14.2 25 Sur 36 Sudoeste 0 -- -- 51
2019-02-09 00:00:00 14.2 21 Sur 33 Sur 0 -- -- 50
2019-02-08 23:00:00 14.4 16 Sudoeste 29 Sur 0 -- -- 47
2019-02-08 22:00:00 14.6 21 Sudoeste 41 Sudoeste 0 -- -- 45
2019-02-08 21:00:00 14.6 30 Sur 40 Sudoeste 0 -- -- 44
2019-02-08 20:00:00 14.7 13 Sudoeste 40 Sudoeste 0 -- -- 45
2019-02-08 19:00:00 12.6 20 Sur 28 Sudoeste 0 -- -- 57
2019-02-08 18:00:00 9.7 5 Sur 30 Oeste 0 -- -- 84
2019-02-08 17:00:00 10.9 23 Oeste 31 Oeste 0 -- -- 88
2019-02-08 16:00:00 11.1 21 Oeste 29 Oeste 0 -- -- 87
2019-02-08 15:00:00 11.3 21 Oeste 32 Oeste 0 -- -- 86
2019-02-08 14:00:00 10.8 25 Oeste 31 Oeste 0 -- -- 87
2019-02-08 13:00:00 10.8 22 Oeste 27 Oeste 0 -- -- 86
2019-02-08 12:00:00 10.6 18 Oeste 22 Oeste 0 -- -- 84
2019-02-08 11:00:00 11.1 13 Oeste 17 Sudoeste 0 -- -- 82
2019-02-08 10:00:00 11.4 6 Oeste 12 Oeste 0 -- -- 75
2019-02-08 09:00:00 10 2 Sudoeste 6 Oeste 0 -- -- 75
2019-02-08 08:00:00 8.7 2 Norte 7 Sudoeste 0 -- -- 76
2019-02-08 07:00:00 8.5 5 Sudoeste 10 Sudoeste 0 -- -- 79
2019-02-08 06:00:00 8.7 8 Sudeste 12 Sudeste 0 -- -- 72
2019-02-08 05:00:00 9.1 7 Sudeste 13 Este 0 -- -- 68
2019-02-08 04:00:00 9.4 9 Sudeste 19 Sudeste 0 -- -- 67
2019-02-08 03:00:00 9.7 9 Sudeste 17 Sudeste 0 -- -- 66
2019-02-08 02:00:00 9.4 6 Sudeste 14 Sur 0 -- -- 70
2019-02-08 01:00:00 9.5 8 Sur 12 Sur 0 -- -- 69
2019-02-08 00:00:00 8.5 4 Sudeste 10 Sur 0 -- -- 75
2019-02-07 23:00:00 8.6 3 Sudoeste 9 Sur 0 -- -- 78
2019-02-07 22:00:00 8 5 Sur 6 Sudeste 0 -- -- 82
2019-02-07 21:00:00 8.6 4 Sudoeste 11 Oeste 0 -- -- 81
2019-02-07 20:00:00 8.9 8 Sudoeste 12 Sudoeste 0 -- -- 80
2019-02-07 19:00:00 9.9 6 Oeste 18 Oeste 0 -- -- 80
2019-02-07 18:00:00 10.7 9 Oeste 26 Oeste 0 -- -- 80
2019-02-07 17:00:00 11 17 Oeste 36 Oeste 0 -- -- 80
2019-02-07 16:00:00 11 24 Oeste 37 Oeste 0 -- -- 78
2019-02-07 15:00:00 10.8 26 Oeste 40 Oeste 0 -- -- 78
2019-02-07 14:00:00 10.6 27 Oeste 50 Oeste 0 -- -- 84
2019-02-07 13:00:00 11.2 28 Oeste 51 Oeste 0 -- -- 81
2019-02-07 12:00:00 10.7 39 Oeste 51 Oeste 0 -- -- 86
2019-02-07 11:00:00 10.6 27 Oeste 62 Oeste 1.4 -- -- 94
2019-02-07 10:00:00 11.2 45 Oeste 58 Oeste 0 -- -- 88
2019-02-07 09:00:00 11.6 18 Oeste 38 Oeste 0 -- -- 81
2019-02-07 08:00:00 11.4 22 Oeste 47 Oeste 0 -- -- 82
2019-02-07 07:00:00 11.5 18 Oeste 39 Oeste 0 -- -- 80
2019-02-07 06:00:00 12.1 14 Oeste 22 Oeste 0 -- -- 73
2019-02-07 05:00:00 10.4 5 Oeste 12 Oeste 0 -- -- 80
2019-02-07 04:00:00 10.1 3 Sudoeste 11 Oeste 0 -- -- 78
2019-02-07 03:00:00 10.2 0 Calma 6 Oeste 0 -- -- 83
2019-02-07 02:00:00 11.6 3 Oeste 25 Sudoeste 0 -- -- 77
2019-02-07 01:00:00 11.2 15 Oeste 38 Oeste 0 -- -- 85
2019-02-07 00:00:00 10.6 21 Oeste 39 Oeste 0 -- -- 91
2019-02-06 23:00:00 10.9 32 Oeste 50 Oeste 0 -- -- 94
2019-02-06 22:00:00 10.9 29 Oeste 45 Sudoeste 0 -- -- 86
2019-02-06 21:00:00 10.7 24 Oeste 37 Oeste 0 -- -- 85
2019-02-06 20:00:00 12 15 Oeste 26 Oeste 0 -- -- 78
2019-02-06 19:00:00 11.3 10 Oeste 19 Sudoeste 0 -- -- 86
2019-02-06 18:00:00 11.8 9 Sudeste 23 Este 0 -- -- 88
2019-02-06 17:00:00 12.3 17 Este 29 Este 0 -- -- 89
2019-02-06 16:00:00 12.1 18 Este 27 Este 0 -- -- 89
2019-02-06 15:00:00 13.1 20 Sudeste 30 Este 0 -- -- 81
2019-02-06 14:00:00 13.3 20 Este 29 Este 0 -- -- 78
2019-02-06 13:00:00 13.7 16 Sudeste 29 Este 0 -- -- 78
2019-02-06 12:00:00 13.3 17 Este 25 Sudeste 0 -- -- 77
2019-02-06 11:00:00 13.5 16 Este 22 Sudeste 0 -- -- 76
2019-02-06 10:00:00 12.7 10 Sudeste 22 Sudeste 0 -- -- 79
2019-02-06 09:00:00 11.7 10 Sudeste 19 Sudeste 0 -- -- 82
2019-02-06 08:00:00 10 9 Sudeste 15 Este 0 -- -- 86
2019-02-06 07:00:00 9.9 10 Sudeste 19 Este 0 -- -- 89
2019-02-06 06:00:00 9.5 6 Sudeste 16 Sudeste 0 -- -- 89
2019-02-06 05:00:00 9.8 10 Sudeste 18 Sudeste 0 -- -- 89
2019-02-06 04:00:00 10.7 9 Sudeste 14 Sudeste 0 -- -- 83
2019-02-06 03:00:00 10.8 8 Sudeste 15 Sudeste 0 -- -- 82
2019-02-06 02:00:00 10.7 9 Sudeste 14 Sudeste 0 -- -- 83
2019-02-06 01:00:00 10.3 4 Sudeste 5 Sudeste 0 -- -- 84
2019-02-06 00:00:00 10.5 4 Sudeste 5 Sudeste 0 -- -- 83
2019-02-05 23:00:00 11.1 3 Sudeste 8 Este 0 -- -- 80
2019-02-05 22:00:00 11.6 4 Sudeste 5 Sudeste 0 -- -- 78
2019-02-05 21:00:00 12 3 Sudoeste 9 Sudoeste 0 -- -- 77
2019-02-05 20:00:00 12.3 8 Sudoeste 14 Oeste 0 -- -- 75
2019-02-05 19:00:00 12.2 10 Oeste 19 Oeste 0 -- -- 76
2019-02-05 18:00:00 12.7 12 Oeste 20 Oeste 0 -- -- 74
2019-02-05 17:00:00 13.3 15 Oeste 27 Oeste 0 -- -- 72
2019-02-05 16:00:00 13.7 16 Oeste 28 Oeste 0 -- -- 71
2019-02-05 15:00:00 13.9 21 Oeste 35 Oeste 0 -- -- 68
2019-02-05 14:00:00 13.8 24 Oeste 36 Oeste 0 -- -- 68
2019-02-05 13:00:00 13.7 22 Oeste 31 Oeste 0 -- -- 71
2019-02-05 12:00:00 13.2 23 Oeste 35 Oeste 0 -- -- 71
2019-02-05 11:00:00 13.1 27 Oeste 40 Oeste 0 -- -- 71
2019-02-05 10:00:00 13 23 Oeste 39 Oeste 0 -- -- 70
2019-02-05 09:00:00 13 23 Oeste 39 Oeste 0 -- -- 72
2019-02-05 08:00:00 12.7 23 Oeste 41 Sudoeste 0 -- -- 75
2019-02-05 07:00:00 11.9 22 Oeste 46 Oeste 0 -- -- 81
2019-02-05 06:00:00 12.3 34 Oeste 59 Oeste 0 -- -- 77
2019-02-05 05:00:00 12.5 27 Oeste 44 Sudoeste 0 -- -- 75
2019-02-05 04:00:00 12.6 27 Oeste 46 Oeste 0 -- -- 74
2019-02-05 03:00:00 12.3 26 Oeste 46 Sudoeste 0 -- -- 77
2019-02-05 02:00:00 11.7 27 Oeste 52 Sudoeste 0 -- -- 82
2019-02-05 01:00:00 11.1 26 Oeste 53 Sudoeste 0.2 -- -- 87
2019-02-05 00:00:00 10.2 21 Sudoeste 43 Sudoeste 0.2 -- -- 93
2019-02-04 23:00:00 9.6 15 Oeste 38 Sudoeste 0.6 -- -- 94
2019-02-04 22:00:00 10 17 Oeste 34 Oeste 0.2 -- -- 90
2019-02-04 21:00:00 11 20 Oeste 46 Oeste 0 -- -- 78
2019-02-04 20:00:00 11.2 21 Oeste 48 Sudoeste 0 -- -- 80
2019-02-04 19:00:00 10.7 19 Sudoeste 41 Oeste 0 -- -- 89
2019-02-04 18:00:00 10.3 12 Oeste 45 Oeste 0 -- -- 77
2019-02-04 17:00:00 10.5 9 Sudoeste 43 Sudoeste 0.2 -- -- 76
2019-02-04 16:00:00 11.7 4 Noroeste 31 Sudoeste 0 -- -- 62
2019-02-04 15:00:00 12.3 18 Oeste 37 Oeste 0 -- -- 54
2019-02-04 14:00:00 12.7 4 Norte 13 Oeste 0 -- -- 36
2019-02-04 13:00:00 12.1 2 Norte 6 Oeste 0 -- -- 45
2019-02-04 12:00:00 10.1 3 Nordeste 6 Nordeste 0 -- -- 45
2019-02-04 11:00:00 9.6 4 Sudeste 8 Este 0 -- -- 44
2019-02-04 10:00:00 8.2 0 Calma 10 Sudeste 0 -- -- 54
2019-02-04 09:00:00 6.3 7 Sur 13 Oeste 0 -- -- 69
2019-02-04 08:00:00 4.3 6 Sur 23 Sudeste 0 -- -- 80
2019-02-04 07:00:00 6.5 9 Sudeste 22 Sudeste 0 -- -- 68
2019-02-04 06:00:00 6.2 10 Sur 24 Sudeste 0 -- -- 72
2019-02-04 05:00:00 4.9 7 Sudeste 12 Este 0 -- -- 87
2019-02-04 04:00:00 5.3 4 Sur 13 Sudeste 0 -- -- 85
2019-02-04 03:00:00 5.4 6 Sudeste 10 Sudeste 0 -- -- 86
2019-02-04 02:00:00 6 2 Sudoeste 5 Sudeste 0 -- -- 82
2019-02-04 01:00:00 5.5 4 Sudeste 7 Sudeste 0 -- -- 83
2019-02-04 00:00:00 6.2 6 Sudeste 9 Sudeste 0 -- -- 79
2019-02-03 23:00:00 5.9 4 Sudeste 15 Sudeste 0 -- -- 81
2019-02-03 22:00:00 6.7 9 Sudeste 26 Noroeste 0 -- -- 84
2019-02-03 21:00:00 7.8 26 Noroeste 32 Noroeste 0 -- -- 74
2019-02-03 20:00:00 7.6 10 Oeste 25 Oeste 0 -- -- 79
2019-02-03 19:00:00 6.1 5 Oeste 9 Oeste 0 -- -- 85
2019-02-03 18:00:00 7.3 3 Norte 15 Noroeste 0.4 -- -- 80
2019-02-03 17:00:00 8.9 7 Este 29 Nordeste 0 -- -- 75
2019-02-03 16:00:00 8.6 17 Noroeste 27 Noroeste 0 -- -- 69
2019-02-03 15:00:00 8.6 22 Oeste 42 Oeste 0 -- -- 73
2019-02-03 14:00:00 7.9 18 Oeste 53 Oeste 0 -- -- 80
2019-02-03 13:00:00 7.3 33 Oeste 42 Oeste 0.2 -- -- 78
2019-02-03 12:00:00 7.2 9 Noroeste 48 Noroeste 0.4 -- -- 78
2019-02-03 11:00:00 8.5 32 Noroeste 45 Noroeste 0 -- -- 69
2019-02-03 10:00:00 8.4 23 Noroeste 37 Noroeste 0 -- -- 64
2019-02-03 09:00:00 7.8 10 Norte 28 Nordeste 0 -- -- 71
2019-02-03 08:00:00 7.6 11 Norte 60 Noroeste 0 -- -- 71
2019-02-03 07:00:00 7.8 22 Noroeste 44 Noroeste 0.2 -- -- 62
2019-02-03 06:00:00 7.4 11 Norte 44 Noroeste 0 -- -- 74
2019-02-03 05:00:00 5.8 19 Noroeste 51 Noroeste 0.8 -- -- 74
2019-02-03 04:00:00 8 22 Noroeste 40 Noroeste 0 -- -- 59
2019-02-03 03:00:00 8 22 Noroeste 51 Noroeste 0.2 -- -- 56
2019-02-03 02:00:00 8.4 29 Noroeste 46 Noroeste 0 -- -- 57
2019-02-03 01:00:00 8.4 26 Noroeste 49 Noroeste 0 -- -- 54
2019-02-03 00:00:00 8.2 36 Noroeste 60 Noroeste 0 -- -- 61
2019-02-02 23:00:00 8.3 30 Noroeste 63 Noroeste 0 -- -- 59
2019-02-02 22:00:00 7.8 52 Noroeste 84 Noroeste 0 -- -- 65
2019-02-02 21:00:00 8 48 Noroeste 76 Noroeste 0.4 -- -- 69
2019-02-02 20:00:00 7.8 46 Noroeste 75 Noroeste 0 -- -- 70
2019-02-02 19:00:00 7 36 Noroeste 62 Noroeste 0 -- -- 75
2019-02-02 18:00:00 8.4 44 Noroeste 82 Noroeste 0 -- -- 69
2019-02-02 17:00:00 9.4 58 Noroeste 77 Oeste 0 -- -- 55
2019-02-02 16:00:00 8.9 54 Noroeste 71 Noroeste 0 -- -- 61
2019-02-02 15:00:00 6.9 45 Noroeste 96 Oeste 0.4 -- -- 80
2019-02-02 14:00:00 8.9 46 Noroeste 73 Noroeste 0 -- -- 57
2019-02-02 13:00:00 8.9 63 Noroeste 84 Oeste 0 -- -- 55
2019-02-02 12:00:00 8.8 64 Noroeste 87 Noroeste 0.2 -- -- 58
2019-02-02 11:00:00 8.3 62 Noroeste 90 Noroeste 0 -- -- 65
2019-02-02 10:00:00 7.7 51 Noroeste 107 Noroeste 0.2 -- -- 74
2019-02-02 09:00:00 8 80 Noroeste 112 Oeste 0 -- -- 76
2019-02-02 08:00:00 8.3 71 Noroeste 114 Noroeste 0.2 -- -- 72
2019-02-02 07:00:00 8.7 73 Noroeste 95 Noroeste 0.2 -- -- 78
2019-02-02 06:00:00 7.9 76 Noroeste 102 Oeste 1.2 -- -- 87
2019-02-02 05:00:00 8.2 84 Noroeste 98 Noroeste 1.4 -- -- 85
2019-02-02 04:00:00 8.5 52 Noroeste 73 Oeste 1 -- -- 85
2019-02-02 03:00:00 7.2 30 Sudoeste 70 Oeste 2 -- -- 92
2019-02-02 02:00:00 8.6 53 Oeste 86 Oeste 0 -- -- 85
2019-02-02 01:00:00 8 35 Oeste 57 Oeste 0 -- -- 83
2019-02-02 00:00:00 7.6 30 Oeste 54 Oeste 0 -- -- 80
2019-02-01 23:00:00 7 24 Oeste 83 Oeste 0 -- -- 82
2019-02-01 22:00:00 7.7 62 Oeste 90 Oeste 0.6 -- -- 78
2019-02-01 21:00:00 7.5 26 Oeste 52 Oeste 1.4 -- -- 84
2019-02-01 20:00:00 8.1 26 Oeste 54 Oeste 0 -- -- 81
2019-02-01 19:00:00 7.3 17 Sudoeste 65 Oeste 0.8 -- -- 83
2019-02-01 18:00:00 8.6 25 Sudoeste 46 Sudoeste 0 -- -- 68
2019-02-01 17:00:00 8.4 16 Sudoeste 41 Oeste 1.4 -- -- 70
2019-02-01 16:00:00 8.1 15 Sudoeste 42 Sudoeste 1.2 -- -- 75
2019-02-01 15:00:00 11.1 16 Oeste 36 Oeste 0 -- -- 55
2019-02-01 14:00:00 12.1 8 Sur 36 Sudoeste 0.2 -- -- 55
2019-02-01 13:00:00 12.7 4 Sudoeste 25 Sudoeste 0 -- -- 62
2019-02-01 12:00:00 10.1 9 Sudoeste 39 Oeste 0 -- -- 66
2019-02-01 11:00:00 11.2 11 Sudoeste 40 Sudoeste 0 -- -- 56
2019-02-01 10:00:00 11.1 21 Sudoeste 53 Sudoeste 0 -- -- 55
2019-02-01 09:00:00 10.7 31 Sudoeste 53 Sudoeste 0 -- -- 55
2019-02-01 08:00:00 10.4 25 Sur 47 Sur 0 -- -- 63
2019-02-01 07:00:00 8.3 8 Sur 21 Sudoeste 0 -- -- 81
2019-02-01 06:00:00 8.1 9 Sudeste 12 Este 0 -- -- 92
2019-02-01 05:00:00 9.1 5 Noroeste 29 Oeste 0 -- -- 90
2019-02-01 04:00:00 9.4 0 Calma 14 Oeste 0 -- -- 85
2019-02-01 03:00:00 9.3 5 Sur 15 Sudoeste 0 -- -- 84
2019-02-01 02:00:00 9.5 5 Sur 14 Oeste 0.6 -- -- 92
2019-02-01 01:00:00 9.9 8 Sudoeste 21 Sudoeste 1.2 -- -- 90
2019-02-01 00:00:00 10.1 8 Sudoeste 33 Sudoeste 0 -- -- 89
2019-01-31 23:00:00 10.3 17 Sudoeste 34 Sudoeste 0.2 -- -- 88
2019-01-31 22:00:00 10.4 16 Oeste 46 Oeste 0.6 -- -- 90
2019-01-31 21:00:00 10.3 26 Oeste 55 Noroeste 1.4 -- -- 94
2019-01-31 20:00:00 10.4 33 Oeste 58 Oeste 1.6 -- -- 95
2019-01-31 19:00:00 10.4 36 Oeste 72 Oeste 4.6 -- -- 99
2019-01-31 18:00:00 10.7 54 Oeste 70 Oeste 7.4 -- -- 98
2019-01-31 17:00:00 13.1 21 Oeste 33 Oeste 0 -- -- 91
2019-01-31 16:00:00 13.5 15 Oeste 25 Oeste 0 -- -- 87
2019-01-31 15:00:00 13.5 11 Oeste 21 Oeste 0 -- -- 86
2019-01-31 14:00:00 13.3 6 Noroeste 21 Sudoeste 0 -- -- 87
2019-01-31 13:00:00 14.1 13 Oeste 48 Sudoeste 0.2 -- -- 82
2019-01-31 12:00:00 13.4 14 Sudoeste 45 Sudoeste 0 -- -- 85
2019-01-31 11:00:00 14.4 18 Sudoeste 54 Oeste 0 -- -- 75
2019-01-31 10:00:00 13.6 23 Sudoeste 59 Oeste 0.2 -- -- 77
2019-01-31 09:00:00 12.7 23 Sudoeste 75 Sudoeste 1 -- -- 85
2019-01-31 08:00:00 12.2 25 Sudoeste 59 Sudoeste 2.8 -- -- 88
2019-01-31 07:00:00 12.1 20 Sudoeste 64 Sudoeste 4.2 -- -- 91
2019-01-31 06:00:00 12.1 27 Sudoeste 67 Sudoeste 0.6 -- -- 90
2019-01-31 05:00:00 10.7 27 Sudoeste 56 Sur 2.4 -- -- 90
2019-01-31 04:00:00 10.7 34 Sudoeste 54 Sudoeste 1 -- -- 81
2019-01-31 03:00:00 11.1 40 Sudoeste 60 Sudoeste 0.6 -- -- 78
2019-01-31 02:00:00 10.3 31 Sudoeste 67 Sur 0.4 -- -- 80
2019-01-31 01:00:00 9.3 39 Sur 58 Sur 1.4 -- -- 81
2019-01-31 00:00:00 8.9 36 Sudoeste 58 Sudoeste 1 -- -- 83
2019-01-30 23:00:00 8.6 39 Sudoeste 59 Sudoeste 1.8 -- -- 83
2019-01-30 22:00:00 8.6 37 Sudoeste 64 Sudoeste 2 -- -- 82
2019-01-30 21:00:00 9.4 28 Sudoeste 49 Sudoeste 0 -- -- 74
2019-01-30 20:00:00 10.2 23 Sudoeste 38 Sudoeste 0 -- -- 62
2019-01-30 19:00:00 9.8 10 Sudoeste 17 Sur 0 -- -- 61
2019-01-30 18:00:00 9.1 5 Sudeste 8 Este 0 -- -- 72
2019-01-30 17:00:00 10.2 4 Sudeste 9 Oeste 0 -- -- 66
2019-01-30 16:00:00 10.5 6 Oeste 26 Oeste 0 -- -- 65
2019-01-30 15:00:00 10.5 15 Oeste 34 Oeste 0 -- -- 63
2019-01-30 14:00:00 10.3 18 Oeste 43 Oeste 0 -- -- 63
2019-01-30 13:00:00 10.2 22 Oeste 44 Oeste 0 -- -- 65
2019-01-30 12:00:00 9.2 21 Oeste 62 Oeste 0 -- -- 71
2019-01-30 11:00:00 7.9 28 Oeste 60 Oeste 0 -- -- 78
2019-01-30 10:00:00 6.9 23 Oeste 84 Oeste 2 -- -- 90
2019-01-30 09:00:00 6.7 50 Oeste 71 Oeste 3.4 -- -- 95
2019-01-30 08:00:00 6.8 35 Oeste 83 Oeste 5.8 -- -- 97
2019-01-30 07:00:00 6.9 41 Oeste 91 Oeste 1.6 -- -- 94
2019-01-30 06:00:00 7.2 57 Oeste 101 Oeste 0.4 -- -- 88
2019-01-30 05:00:00 7.1 59 Oeste 94 Oeste 3 -- -- 94
2019-01-30 04:00:00 8 44 Oeste 84 Oeste 0 -- -- 85
2019-01-30 03:00:00 8.4 64 Noroeste 93 Oeste 0 -- -- 80
2019-01-30 02:00:00 9.4 76 Oeste 99 Oeste 0 -- -- 69
2019-01-30 01:00:00 8.2 70 Oeste 96 Oeste 0.6 -- -- 84
2019-01-30 00:00:00 9.4 81 Oeste 118 Oeste 0 -- -- 65
2019-01-29 23:00:00 8.5 98 Oeste 130 Oeste 1.4 -- -- 82
2019-01-29 22:00:00 7.7 99 Oeste 136 Oeste 0.2 -- -- 85
2019-01-29 21:00:00 9.6 101 Oeste 123 Oeste 0.2 -- -- 73
2019-01-29 20:00:00 10.2 84 Oeste 123 Oeste 1.8 -- -- 73
2019-01-29 19:00:00 10.1 103 Oeste 144 Oeste 0.6 -- -- 76
2019-01-29 18:00:00 9.1 96 Oeste 140 Oeste 2 -- -- 88
2019-01-29 17:00:00 10 94 Oeste 142 Oeste 1.6 -- -- 86
2019-01-29 16:00:00 10.8 93 Oeste 141 Oeste 0.4 -- -- 83
2019-01-29 15:00:00 10.9 66 Oeste 101 Oeste 0.6 -- -- 87
2019-01-29 14:00:00 9.9 27 Sudoeste 71 Sudoeste 1.6 -- -- 80
2019-01-29 13:00:00 9.9 26 Sudoeste 47 Sudoeste 1 -- -- 77
2019-01-29 12:00:00 10 24 Sudoeste 56 Sudoeste 0.2 -- -- 75
2019-01-29 11:00:00 10.8 28 Sudoeste 48 Sudoeste 0 -- -- 69
2019-01-29 10:00:00 9.1 17 Sudoeste 37 Sudoeste 0.8 -- -- 82
2019-01-29 09:00:00 8.4 15 Sudoeste 33 Oeste 1 -- -- 83
2019-01-29 08:00:00 9.1 18 Oeste 38 Oeste 0 -- -- 80
2019-01-29 07:00:00 9.2 22 Oeste 53 Sudoeste 0 -- -- 81
2019-01-29 06:00:00 8.8 24 Oeste 45 Oeste 0.2 -- -- 88
2019-01-29 05:00:00 8.3 20 Oeste 40 Oeste 2.2 -- -- 95
2019-01-29 04:00:00 8.6 18 Oeste 51 Oeste 0 -- -- 91
2019-01-29 03:00:00 9.3 37 Oeste 51 Oeste 0.2 -- -- 84
2019-01-29 02:00:00 9.4 35 Oeste 54 Oeste 0 -- -- 85
2019-01-29 01:00:00 10 39 Oeste 75 Oeste 0.4 -- -- 82
2019-01-29 00:00:00 10.1 51 Oeste 64 Oeste 0 -- -- 80
2019-01-28 23:00:00 9.6 38 Oeste 86 Noroeste 0.6 -- -- 86
2019-01-28 22:00:00 8.7 51 Noroeste 73 Oeste 1.2 -- -- 91
2019-01-28 21:00:00 10.5 62 Oeste 73 Oeste 0 -- -- 78
2019-01-28 20:00:00 9.6 63 Oeste 90 Oeste 0.4 -- -- 86
2019-01-28 19:00:00 9.9 68 Oeste 96 Noroeste 0.8 -- -- 76
2019-01-28 18:00:00 9.5 68 Oeste 94 Oeste 1.6 -- -- 86
2019-01-28 17:00:00 10.9 81 Oeste 101 Oeste 0 -- -- 76
2019-01-28 16:00:00 11 80 Oeste 107 Noroeste 0 -- -- 73
2019-01-28 15:00:00 11 80 Oeste 104 Oeste 0.2 -- -- 76
2019-01-28 14:00:00 9.9 98 Oeste 116 Oeste 0 -- -- 84
2019-01-28 13:00:00 10.6 82 Oeste 110 Oeste 0 -- -- 74
2019-01-28 12:00:00 9.3 83 Oeste 118 Oeste 1 -- -- 92
2019-01-28 11:00:00 9.9 91 Oeste 116 Noroeste 0.2 -- -- 81
2019-01-28 10:00:00 11 80 Noroeste 108 Oeste 0 -- -- 78
2019-01-28 09:00:00 11 84 Oeste 123 Oeste 0.2 -- -- 80
2019-01-28 08:00:00 10.5 90 Oeste 130 Oeste 1 -- -- 91
2019-01-28 07:00:00 10.7 101 Oeste 129 Oeste 0.4 -- -- 91
2019-01-28 06:00:00 10.2 83 Oeste 114 Oeste 0.2 -- -- 95
2019-01-28 05:00:00 10.1 91 Oeste 120 Oeste 2 -- -- 96
2019-01-28 04:00:00 8.6 59 Oeste 102 Oeste 1.8 -- -- 95
2019-01-28 03:00:00 8.2 45 Oeste 78 Oeste 0.4 -- -- 91
2019-01-28 02:00:00 7.8 47 Oeste 91 Oeste 1.4 -- -- 95
2019-01-28 01:00:00 8.8 54 Oeste 94 Oeste 2.4 -- -- 89
2019-01-28 00:00:00 9 46 Oeste 109 Oeste 0.8 -- -- 89
2019-01-27 23:00:00 9.3 70 Oeste 114 Oeste 1 -- -- 81
2019-01-27 22:00:00 9.4 68 Oeste 89 Oeste 1.2 -- -- 80
2019-01-27 21:00:00 9.1 78 Oeste 94 Oeste 0 -- -- 83
2019-01-27 20:00:00 9.5 74 Oeste 111 Oeste 0.2 -- -- 78
2019-01-27 19:00:00 10.1 75 Oeste 98 Oeste 0 -- -- 69
2019-01-27 18:00:00 10.1 75 Oeste 102 Oeste 0 -- -- 67
2019-01-27 17:00:00 8.7 78 Oeste 104 Noroeste 0 -- -- 83
2019-01-27 16:00:00 10.1 84 Oeste 100 Oeste 0 -- -- 65
2019-01-27 15:00:00 9.6 82 Oeste 102 Oeste 0 -- -- 77
2019-01-27 14:00:00 9.6 75 Oeste 123 Oeste 0.2 -- -- 80
2019-01-27 13:00:00 9.6 77 Oeste 131 Oeste 1.6 -- -- 80
2019-01-27 12:00:00 10.5 92 Oeste 114 Oeste 0.2 -- -- 74
2019-01-27 11:00:00 9.4 75 Oeste 113 Noroeste 1.2 -- -- 89
2019-01-27 10:00:00 9.3 75 Oeste 109 Oeste 0.2 -- -- 82
2019-01-27 09:00:00 7.9 80 Oeste 112 Oeste 2.6 -- -- 99
2019-01-27 08:00:00 9.7 60 Oeste 102 Oeste 0 -- -- 78
2019-01-27 07:00:00 9.6 83 Oeste 127 Oeste 0.4 -- -- 77
2019-01-27 06:00:00 10 85 Oeste 134 Oeste 1.2 -- -- 86
2019-01-27 05:00:00 10.1 67 Oeste 113 Oeste 1.6 -- -- 87
2019-01-27 04:00:00 9.7 81 Oeste 113 Oeste 1.2 -- -- 97
2019-01-27 03:00:00 10.1 35 Oeste 68 Oeste 0 -- -- 89
2019-01-27 02:00:00 10.5 27 Oeste 53 Oeste 0 -- -- 81
2019-01-27 01:00:00 9.9 23 Oeste 44 Sudoeste 0 -- -- 82
2019-01-27 00:00:00 10.1 21 Oeste 42 Oeste 0 -- -- 83
2019-01-26 23:00:00 9.9 19 Oeste 39 Sudoeste 0 -- -- 84
2019-01-26 22:00:00 9.6 20 Oeste 35 Oeste 0 -- -- 86
2019-01-26 21:00:00 9.7 16 Oeste 47 Oeste 0 -- -- 87
2019-01-26 20:00:00 9.8 18 Oeste 31 Oeste 0 -- -- 86
2019-01-26 19:00:00 9.7 13 Oeste 27 Oeste 0 -- -- 84
2019-01-26 18:00:00 10.5 23 Oeste 27 Oeste 0 -- -- 79
2019-01-26 17:00:00 11.1 17 Noroeste 21 Noroeste 0 -- -- 81
2019-01-26 16:00:00 12.6 6 Oeste 8 Oeste 0 -- -- 69
2019-01-26 15:00:00 13.8 0 Calma 6 Noroeste 0 -- -- 61
2019-01-26 14:00:00 13 4 Este 10 Este 0 -- -- 66
2019-01-26 13:00:00 13.7 3 Este 15 Sur 0 -- -- 68
2019-01-26 12:00:00 12.5 6 Sudoeste 14 Sudoeste 0 -- -- 68
2019-01-26 11:00:00 11.7 2 Oeste 7 Sur 0.2 -- -- 75
2019-01-26 10:00:00 11 3 Sur 19 Sudoeste 0 -- -- 79
2019-01-26 09:00:00 10.3 14 Sudoeste 23 Oeste 0 -- -- 81
2019-01-26 08:00:00 10.1 13 Sudoeste 22 Sudoeste 0 -- -- 85
2019-01-26 07:00:00 10 16 Oeste 30 Sudoeste 0 -- -- 85
2019-01-26 06:00:00 9.6 18 Oeste 36 Sudoeste 0 -- -- 91
2019-01-26 05:00:00 9.6 21 Oeste 35 Oeste 0 -- -- 95
2019-01-26 04:00:00 9.9 21 Oeste 35 Sudoeste 0 -- -- 94
2019-01-26 03:00:00 9.8 20 Oeste 35 Oeste 0 -- -- 97
2019-01-26 02:00:00 9.9 21 Oeste 32 Oeste 0 -- -- 97
2019-01-26 01:00:00 10.2 23 Oeste 35 Oeste 0 -- -- 97
2019-01-26 00:00:00 10.5 20 Oeste 38 Oeste 0 -- -- 96
2019-01-25 23:00:00 10.1 19 Oeste 40 Oeste 0 -- -- 97
2019-01-25 22:00:00 9.9 40 Oeste 54 Oeste 0 -- -- 99
2019-01-25 21:00:00 9.7 41 Oeste 54 Oeste 0.4 -- -- 100
2019-01-25 20:00:00 9.7 36 Oeste 44 Oeste 0.2 -- -- 99
2019-01-25 19:00:00 10 35 Noroeste 64 Oeste 0 -- -- 97
2019-01-25 18:00:00 11.1 51 Oeste 60 Oeste 0.2 -- -- 89
2019-01-25 17:00:00 10.5 54 Oeste 67 Oeste 0 -- -- 91
2019-01-25 16:00:00 11.3 46 Oeste 63 Oeste 0 -- -- 87
2019-01-25 15:00:00 10.7 59 Oeste 71 Oeste 0 -- -- 92
2019-01-25 14:00:00 11.1 45 Oeste 71 Oeste 0 -- -- 86
2019-01-25 13:00:00 11.1 52 Oeste 65 Oeste 0.4 -- -- 94
2019-01-25 12:00:00 10.5 43 Oeste 65 Oeste 0 -- -- 99
2019-01-25 11:00:00 10.4 52 Oeste 64 Oeste 0 -- -- 98
2019-01-25 10:00:00 10.6 49 Oeste 65 Oeste 0 -- -- 96
2019-01-25 09:00:00 10.8 57 Oeste 70 Oeste 0.2 -- -- 93
2019-01-25 08:00:00 10.2 51 Noroeste 72 Oeste 0 -- -- 96
2019-01-25 07:00:00 10.3 51 Oeste 64 Noroeste 0 -- -- 95
2019-01-25 06:00:00 11.2 46 Oeste 60 Oeste 0 -- -- 93
2019-01-25 05:00:00 10.9 49 Oeste 62 Oeste 0.2 -- -- 95
2019-01-25 04:00:00 10.4 57 Oeste 69 Oeste 0.4 -- -- 96
2019-01-25 03:00:00 10.1 57 Noroeste 71 Noroeste 0.4 -- -- 96
2019-01-25 02:00:00 10.5 52 Oeste 63 Oeste 0 -- -- 99
2019-01-25 01:00:00 10.1 30 Oeste 43 Oeste 0.4 -- -- 100
2019-01-25 00:00:00 9.2 18 Oeste 29 Oeste 0 -- -- 100
2019-01-24 23:00:00 8.7 17 Oeste 24 Oeste 0.2 -- -- 100
2019-01-24 22:00:00 8.6 15 Oeste 20 Oeste 0 -- -- 99
2019-01-24 21:00:00 8.4 16 Oeste 22 Oeste 0 -- -- 98
2019-01-24 20:00:00 8 3 Noroeste 10 Oeste 0 -- -- 98
2019-01-24 19:00:00 7.6 2 Sudeste 5 Noroeste 0 -- -- 98
2019-01-24 18:00:00 7.6 3 Noroeste 8 Noroeste 0.2 -- -- 98
2019-01-24 17:00:00 7.5 0 Calma 10 Oeste 0.4 -- -- 97
2019-01-24 16:00:00 7.7 6 Oeste 12 Oeste 0.4 -- -- 97
2019-01-24 15:00:00 7.5 5 Nordeste 9 Norte 0.2 -- -- 96
2019-01-24 14:00:00 7.6 2 Noroeste 8 Oeste 0.6 -- -- 95
2019-01-24 13:00:00 7.3 0 Calma 20 Sur 0.4 -- -- 96
2019-01-24 12:00:00 6.9 8 Sudeste 21 Este 0.4 -- -- 97
2019-01-24 11:00:00 6.8 14 Este 26 Este 0.6 -- -- 97
2019-01-24 10:00:00 7.6 22 Este 30 Este 0.2 -- -- 93
2019-01-24 09:00:00 7.7 9 Norte 21 Noroeste 0.2 -- -- 91
2019-01-24 08:00:00 7.7 12 Noroeste 27 Noroeste 0.6 -- -- 91
2019-01-24 07:00:00 7.8 14 Noroeste 29 Norte 0.4 -- -- 89
2019-01-24 06:00:00 8 13 Noroeste 35 Noroeste 0 -- -- 88
2019-01-24 05:00:00 8.2 22 Noroeste 34 Noroeste 0 -- -- 88
2019-01-24 04:00:00 8.6 24 Noroeste 43 Noroeste 0 -- -- 82
2019-01-24 03:00:00 8 19 Noroeste 38 Noroeste 0 -- -- 84
2019-01-24 02:00:00 8.1 23 Noroeste 59 Noroeste 0.2 -- -- 88
2019-01-24 01:00:00 8.6 43 Noroeste 57 Noroeste 0.8 -- -- 84
2019-01-24 00:00:00 8.6 32 Noroeste 64 Noroeste 0.4 -- -- 87
2019-01-23 23:00:00 8.8 43 Noroeste 73 Noroeste 0.6 -- -- 90
2019-01-23 22:00:00 9.9 56 Noroeste 83 Noroeste 0.4 -- -- 80
2019-01-23 21:00:00 10.5 59 Noroeste 86 Noroeste 0.2 -- -- 82
2019-01-23 20:00:00 9.6 57 Noroeste 81 Noroeste 0.2 -- -- 90
2019-01-23 19:00:00 8.9 67 Noroeste 93 Noroeste 0.4 -- -- 90
2019-01-23 18:00:00 10.4 73 Oeste 90 Noroeste 0 -- -- 84
2019-01-23 17:00:00 10.5 71 Oeste 89 Noroeste 0 -- -- 79
2019-01-23 16:00:00 10.4 62 Oeste 84 Oeste 0 -- -- 81
2019-01-23 15:00:00 9 58 Oeste 78 Oeste 1 -- -- 94
2019-01-23 14:00:00 10.2 55 Oeste 84 Noroeste 2 -- -- 92
2019-01-23 13:00:00 10.2 60 Oeste 78 Noroeste 0.2 -- -- 89
2019-01-23 12:00:00 8.9 70 Noroeste 85 Noroeste 1 -- -- 97
2019-01-23 11:00:00 10.2 67 Oeste 93 Oeste 0 -- -- 94
2019-01-23 10:00:00 9.4 73 Oeste 91 Oeste 0.8 -- -- 94
2019-01-23 09:00:00 10.7 69 Noroeste 105 Noroeste 0 -- -- 86
2019-01-23 08:00:00 11.3 90 Oeste 121 Oeste 0.2 -- -- 86
2019-01-23 07:00:00 11.9 102 Oeste 134 Oeste 0.6 -- -- 88
2019-01-23 06:00:00 11.6 104 Oeste 130 Oeste 1.4 -- -- 95
2019-01-23 05:00:00 9.3 56 Oeste 86 Oeste 2.4 -- -- 99
2019-01-23 04:00:00 9.6 55 Oeste 85 Oeste 3 -- -- 98
2019-01-23 03:00:00 9.8 72 Oeste 85 Oeste 1.6 -- -- 96
2019-01-23 02:00:00 10.3 62 Oeste 76 Oeste 0.2 -- -- 88
2019-01-23 01:00:00 9.6 54 Oeste 77 Oeste 0 -- -- 92
2019-01-23 00:00:00 9.8 58 Oeste 80 Oeste 0.6 -- -- 89
2019-01-22 23:00:00 9.8 72 Oeste 90 Oeste 0.2 -- -- 87
2019-01-22 22:00:00 9.5 62 Oeste 78 Oeste 0.6 -- -- 92
2019-01-22 21:00:00 7.9 35 Oeste 64 Oeste 1.6 -- -- 93
2019-01-22 20:00:00 7.2 30 Oeste 57 Oeste 3 -- -- 94
2019-01-22 19:00:00 7.4 27 Oeste 66 Oeste 2.4 -- -- 93
2019-01-22 18:00:00 8.1 53 Oeste 94 Oeste 0.4 -- -- 84
2019-01-22 17:00:00 9.6 49 Oeste 65 Oeste 0 -- -- 81
2019-01-22 16:00:00 8.8 49 Oeste 87 Oeste 0.4 -- -- 81
2019-01-22 15:00:00 9.3 55 Oeste 83 Oeste 0.2 -- -- 82
2019-01-22 14:00:00 9 42 Oeste 82 Noroeste 0.4 -- -- 82
2019-01-22 13:00:00 9.1 63 Noroeste 94 Oeste 1.6 -- -- 86
2019-01-22 12:00:00 8 34 Oeste 78 Oeste 4.4 -- -- 96
2019-01-22 11:00:00 8 43 Oeste 103 Oeste 2.8 -- -- 95
2019-01-22 10:00:00 7.7 31 Oeste 54 Oeste 0.8 -- -- 88
2019-01-22 09:00:00 7.4 24 Oeste 46 Sudoeste 0.8 -- -- 84
2019-01-22 08:00:00 7.4 23 Oeste 49 Oeste 0.4 -- -- 84
2019-01-22 07:00:00 7.8 23 Sudoeste 44 Oeste 0 -- -- 78
2019-01-22 06:00:00 8 18 Oeste 42 Oeste 0 -- -- 77
2019-01-22 05:00:00 8.1 15 Oeste 37 Oeste 0 -- -- 73
2019-01-22 04:00:00 7.7 15 Oeste 32 Sudoeste 0 -- -- 76
2019-01-22 03:00:00 7.5 16 Oeste 32 Sudoeste 0 -- -- 80
2019-01-22 02:00:00 7.6 15 Sudoeste 31 Sudoeste 0 -- -- 78
2019-01-22 01:00:00 7.6 10 Oeste 29 Oeste 0 -- -- 75
2019-01-22 00:00:00 8.4 23 Oeste 33 Oeste 0 -- -- 69
2019-01-21 23:00:00 7.7 14 Oeste 27 Oeste 0 -- -- 74
2019-01-21 22:00:00 8.4 23 Oeste 39 Oeste 0 -- -- 69
2019-01-21 21:00:00 8.3 27 Oeste 34 Oeste 0 -- -- 69
2019-01-21 20:00:00 8.4 25 Oeste 33 Oeste 0 -- -- 67
2019-01-21 19:00:00 8 16 Noroeste 32 Oeste 0 -- -- 70
2019-01-21 18:00:00 8 17 Noroeste 29 Noroeste 0 -- -- 67
2019-01-21 17:00:00 8 18 Noroeste 28 Noroeste 0 -- -- 68
2019-01-21 16:00:00 8.6 17 Noroeste 26 Noroeste 0 -- -- 65
2019-01-21 15:00:00 8.7 22 Noroeste 33 Noroeste 0 -- -- 64
2019-01-21 14:00:00 8.8 23 Noroeste 31 Noroeste 0 -- -- 65
2019-01-21 13:00:00 8.8 23 Noroeste 33 Norte 0 -- -- 66
2019-01-21 12:00:00 9 29 Noroeste 44 Noroeste 0 -- -- 68
2019-01-21 11:00:00 8.4 23 Noroeste 35 Noroeste 0 -- -- 66
2019-01-21 10:00:00 8.1 22 Noroeste 36 Noroeste 0 -- -- 65
2019-01-21 09:00:00 8.3 15 Noroeste 33 Noroeste 0 -- -- 67
2019-01-21 08:00:00 8.4 15 Noroeste 30 Noroeste 0 -- -- 68
2019-01-21 07:00:00 8.4 15 Noroeste 31 Noroeste 0 -- -- 77
2019-01-21 06:00:00 8.4 13 Noroeste 33 Noroeste 0 -- -- 71
2019-01-21 05:00:00 8.6 16 Norte 31 Nordeste 0.4 -- -- 76
2019-01-21 04:00:00 8.9 9 Norte 33 Norte 0 -- -- 80
2019-01-21 03:00:00 9.2 26 Noroeste 40 Oeste 0 -- -- 82
2019-01-21 02:00:00 9.4 11 Noroeste 19 Noroeste 0 -- -- 74
2019-01-21 01:00:00 9.5 8 Noroeste 21 Norte 0 -- -- 72
2019-01-21 00:00:00 9.2 8 Norte 35 Noroeste 0 -- -- 76
2019-01-20 23:00:00 9.7 27 Noroeste 34 Oeste 0 -- -- 76
2019-01-20 22:00:00 9.5 12 Noroeste 27 Noroeste 0 -- -- 83
2019-01-20 21:00:00 9.6 22 Noroeste 37 Noroeste 0.8 -- -- 80
2019-01-20 20:00:00 10 15 Noroeste 35 Noroeste 0 -- -- 73
2019-01-20 19:00:00 9.9 21 Noroeste 36 Noroeste 0.2 -- -- 74
2019-01-20 18:00:00 9 23 Noroeste 56 Noroeste 1 -- -- 87
2019-01-20 17:00:00 10.1 25 Noroeste 39 Noroeste 0.6 -- -- 77
2019-01-20 16:00:00 10 14 Noroeste 49 Oeste 0 -- -- 75
2019-01-20 15:00:00 10.1 23 Noroeste 29 Noroeste 0 -- -- 82
2019-01-20 14:00:00 10.6 27 Noroeste 44 Noroeste 4.4 -- -- 83
2019-01-20 13:00:00 10.4 15 Noroeste 41 Oeste 0 -- -- 78
2019-01-20 12:00:00 9.6 34 Noroeste 46 Noroeste 0.2 -- -- 86
2019-01-20 11:00:00 10 29 Noroeste 40 Oeste 0 -- -- 78
2019-01-20 10:00:00 9.7 36 Oeste 51 Oeste 0 -- -- 84
2019-01-20 09:00:00 10.1 40 Oeste 55 Oeste 0.2 -- -- 75
2019-01-20 08:00:00 9.4 26 Oeste 51 Noroeste 0.4 -- -- 83
2019-01-20 07:00:00 9.7 33 Noroeste 41 Noroeste 0.2 -- -- 82
2019-01-20 06:00:00 9.8 32 Oeste 51 Oeste 0.6 -- -- 85
2019-01-20 05:00:00 9.4 44 Oeste 54 Oeste 0 -- -- 83
2019-01-20 04:00:00 10.3 17 Noroeste 53 Oeste 0 -- -- 80
2019-01-20 03:00:00 9.9 37 Oeste 53 Oeste 0 -- -- 91
2019-01-20 02:00:00 9.5 27 Oeste 39 Oeste 0 -- -- 86
2019-01-20 01:00:00 9.4 18 Oeste 27 Oeste 0 -- -- 76
2019-01-20 00:00:00 9.6 15 Oeste 30 Sudoeste 0 -- -- 70
2019-01-19 23:00:00 9.7 17 Sudoeste 32 Sudoeste 0 -- -- 66
2019-01-19 22:00:00 9.6 22 Sudoeste 40 Sudoeste 0 -- -- 65
2019-01-19 21:00:00 9.5 23 Sudoeste 46 Sudoeste 0 -- -- 65
2019-01-19 20:00:00 9.4 29 Sudoeste 47 Sudoeste 0 -- -- 64
2019-01-19 19:00:00 9.5 26 Sur 44 Sur 0 -- -- 64
2019-01-19 18:00:00 9.6 26 Sur 50 Sur 0 -- -- 64
2019-01-19 17:00:00 10.3 33 Sudoeste 51 Sudoeste 0 -- -- 62
2019-01-19 16:00:00 10.5 29 Sudoeste 50 Sur 0 -- -- 60
2019-01-19 15:00:00 10.9 30 Sur 48 Sur 0 -- -- 60
2019-01-19 14:00:00 11.2 27 Sur 42 Sudoeste 0 -- -- 56
2019-01-19 13:00:00 11 26 Sur 44 Sudoeste 0 -- -- 58
2019-01-19 12:00:00 10.2 29 Sur 48 Sur 0 -- -- 60
2019-01-19 11:00:00 9.8 31 Sur 43 Sudoeste 0 -- -- 61
2019-01-19 10:00:00 9.2 28 Sudoeste 42 Sur 0 -- -- 64
2019-01-19 09:00:00 9 22 Sudoeste 37 Sudoeste 0 -- -- 64
2019-01-19 08:00:00 9.2 19 Sudoeste 43 Sudoeste 0 -- -- 63
2019-01-19 07:00:00 9.3 15 Sudoeste 45 Sudoeste 0 -- -- 66
2019-01-19 06:00:00 9.1 23 Sudoeste 48 Sudoeste 0 -- -- 71
2019-01-19 05:00:00 8.9 22 Sudoeste 45 Oeste 0 -- -- 76
2019-01-19 04:00:00 7.9 8 Sudoeste 42 Sudoeste 3.2 -- -- 90
2019-01-19 03:00:00 7.9 22 Sudoeste 55 Sudoeste 2.6 -- -- 90
2019-01-19 02:00:00 9.3 24 Sudoeste 54 Sudoeste 0 -- -- 82
2019-01-19 01:00:00 9 25 Sudoeste 56 Sudoeste 0.2 -- -- 86
2019-01-19 00:00:00 9.2 24 Sudoeste 52 Sudoeste 0 -- -- 79